Time;durP1;ratioP1;P1;durP2;ratioP2;P2;SDS_P1;SDS_P2;PMS_P1;PMS_P2;Temp;Humidity;BMP_temperature;BMP_pressure;BME280_temperature;BME280_humidity;BME280_pressure;Samples;Min_cycle;Max_cycle;Signal;HPM_P1;HPM_P2
2023/08/22 00:00:13;;;;;;;8.02;6.78;;;24.30;68.10;;;;;;5055599;28;20071;-74
2023/08/22 00:02:39;;;;;;;9.65;7.43;;;24.30;67.80;;;;;;5055427;28;20104;-74
2023/08/22 00:05:05;;;;;;;9.35;7.18;;;24.20;67.90;;;;;;5055321;28;20059;-74
2023/08/22 00:07:30;;;;;;;12.48;8.18;;;24.10;68.20;;;;;;5055229;28;20037;-74
2023/08/22 00:09:56;;;;;;;11.23;7.50;;;24.00;68.70;;;;;;5037660;28;20432;-74
2023/08/22 00:12:22;;;;;;;10.52;7.20;;;23.90;68.90;;;;;;5055174;28;20103;-74
2023/08/22 00:14:48;;;;;;;7.20;6.50;;;23.90;69.00;;;;;;5055265;28;20393;-73
2023/08/22 00:17:13;;;;;;;9.85;7.03;;;23.90;69.00;;;;;;5055280;28;20074;-74
2023/08/22 00:19:40;;;;;;;9.80;7.18;;;24.00;68.90;;;;;;5055127;28;20104;-73
2023/08/22 00:22:05;;;;;;;8.38;6.90;;;24.00;68.70;;;;;;5055043;28;20029;-73
2023/08/22 00:24:32;;;;;;;8.73;6.75;;;24.10;68.50;;;;;;5055124;28;20159;-73
2023/08/22 00:26:58;;;;;;;11.95;7.25;;;24.10;68.30;;;;;;5036947;28;20496;-73
2023/08/22 00:29:24;;;;;;;13.90;7.10;;;24.10;68.00;;;;;;5053858;28;20033;-73
2023/08/22 00:31:49;;;;;;;13.10;7.65;;;24.10;68.40;;;;;;5054976;28;20018;-74
2023/08/22 00:34:15;;;;;;;11.30;7.50;;;24.20;68.00;;;;;;5054744;28;20025;-75
2023/08/22 00:36:41;;;;;;;10.93;7.45;;;24.10;68.30;;;;;;5054878;28;20112;-74
2023/08/22 00:39:07;;;;;;;8.85;7.50;;;23.90;68.70;;;;;;5054795;28;20021;-74
2023/08/22 00:41:33;;;;;;;14.70;7.85;;;23.90;68.70;;;;;;5054751;28;20021;-74
2023/08/22 00:43:59;;;;;;;8.80;7.43;;;23.90;69.00;;;;;;5054791;28;20428;-73
2023/08/22 00:46:27;;;;;;;11.40;7.13;;;23.90;68.80;;;;;;5054521;28;20389;-75
2023/08/22 00:48:52;;;;;;;8.32;7.45;;;23.90;68.90;;;;;;5054593;28;20112;-74
2023/08/22 00:51:19;;;;;;;10.85;7.53;;;23.90;68.80;;;;;;5036594;28;20108;-74
2023/08/22 00:53:45;;;;;;;9.18;7.07;;;23.90;68.90;;;;;;5054505;28;20029;-75
2023/08/22 00:56:11;;;;;;;10.32;7.22;;;23.80;68.80;;;;;;5054439;28;20029;-73
2023/08/22 00:58:37;;;;;;;9.02;6.85;;;23.80;69.10;;;;;;5054452;28;20035;-74
2023/08/22 01:01:03;;;;;;;10.88;7.03;;;23.80;69.20;;;;;;5054430;28;20025;-73
2023/08/22 01:03:29;;;;;;;10.75;7.18;;;23.80;69.30;;;;;;5054232;28;20025;-73
2023/08/22 01:06:00;;;;;;;9.45;6.85;;;23.80;69.30;;;;;;5054237;28;20029;-75
2023/08/22 01:08:31;;;;;;;12.57;7.80;;;23.80;69.10;;;;;;5054180;28;20029;-74
2023/08/22 01:11:07;;;;;;;10.77;7.13;;;23.70;69.10;;;;;;5054220;28;20381;-74
2023/08/22 01:13:36;;;;;;;10.48;6.75;;;23.80;69.20;;;;;;5059683;28;20099;-75
2023/08/22 01:16:03;;;;;;;9.50;7.20;;;23.80;69.10;;;;;;5054280;28;20025;-74
2023/08/22 01:18:30;;;;;;;10.85;7.10;;;23.80;69.20;;;;;;5054001;28;20470;-74
2023/08/22 01:21:04;;;;;;;12.38;7.43;;;23.80;68.90;;;;;;5036161;28;20037;-74
2023/08/22 01:23:30;;;;;;;8.50;6.60;;;23.70;69.20;;;;;;5053954;28;20028;-74
2023/08/22 01:25:56;;;;;;;10.70;7.00;;;23.50;69.70;;;;;;5053950;28;20021;-74
2023/08/22 01:28:45;;;;;;;14.00;7.80;;;23.40;70.20;;;;;;5053766;28;20072;-74
2023/08/22 01:31:16;;;;;;;10.63;7.88;;;23.30;70.80;;;;;;5053778;28;20104;-74
2023/08/22 01:33:50;;;;;;;10.00;7.03;;;23.20;71.30;;;;;;5053633;28;20107;-74
2023/08/22 01:36:17;;;;;;;8.80;7.80;;;23.00;71.90;;;;;;5053730;28;20025;-74
2023/08/22 01:38:45;;;;;;;10.05;7.15;;;23.00;72.40;;;;;;5035864;28;20112;-74
2023/08/22 01:41:10;;;;;;;8.88;7.30;;;23.00;72.40;;;;;;5053445;28;20024;-75
2023/08/22 01:43:37;;;;;;;13.15;7.90;;;23.00;72.60;;;;;;5053496;28;20029;-74
2023/08/22 01:46:05;;;;;;;10.65;7.32;;;23.00;72.70;;;;;;5053597;28;20025;-74
2023/08/22 01:48:31;;;;;;;13.02;7.88;;;23.00;72.40;;;;;;5053487;28;20087;-75
2023/08/22 01:50:56;;;;;;;9.93;7.85;;;23.10;72.50;;;;;;5053540;28;20013;-74
2023/08/22 01:53:22;;;;;;;12.25;7.05;;;23.00;72.50;;;;;;5053402;28;20021;-75
2023/08/22 01:55:47;;;;;;;12.40;8.30;;;23.00;72.50;;;;;;5035444;28;20028;-75
2023/08/22 01:58:14;;;;;;;12.25;7.68;;;22.90;72.90;;;;;;5053347;28;20029;-74
2023/08/22 02:00:39;;;;;;;8.95;7.45;;;22.90;72.70;;;;;;5053306;28;20076;-74
2023/08/22 02:03:05;;;;;;;12.70;7.03;;;22.90;73.10;;;;;;5053207;28;20111;-74
2023/08/22 02:05:31;;;;;;;8.57;7.00;;;22.90;73.20;;;;;;5053125;28;20021;-76
2023/08/22 02:07:57;;;;;;;8.55;7.43;;;22.90;73.00;;;;;;5053048;28;20184;-75
2023/08/22 02:10:23;;;;;;;11.90;7.63;;;22.80;73.20;;;;;;5053084;28;20079;-74
2023/08/22 02:12:48;;;;;;;11.93;7.38;;;22.70;73.40;;;;;;5034986;28;20535;-75
2023/08/22 02:15:14;;;;;;;8.02;6.57;;;22.60;74.00;;;;;;5053099;28;20644;-75
2023/08/22 02:17:39;;;;;;;10.88;7.65;;;22.60;74.10;;;;;;5052932;28;20020;-75
2023/08/22 02:20:07;;;;;;;10.70;7.82;;;22.50;74.70;;;;;;5052998;28;20359;-75
2023/08/22 02:22:37;;;;;;;8.60;7.70;;;22.40;74.80;;;;;;5052923;28;20029;-75
2023/08/22 02:25:05;;;;;;;8.98;7.18;;;22.50;74.80;;;;;;5052993;28;20087;-74
2023/08/22 02:27:30;;;;;;;10.27;7.65;;;22.60;74.40;;;;;;5052760;28;20083;-74
2023/08/22 02:29:56;;;;;;;7.75;6.95;;;22.60;74.30;;;;;;5052681;28;20020;-74
2023/08/22 02:32:21;;;;;;;9.25;7.45;;;22.70;74.20;;;;;;5052901;28;20386;-74
2023/08/22 02:34:47;;;;;;;10.60;7.35;;;22.60;74.00;;;;;;5052916;28;20040;-73
2023/08/22 02:37:12;;;;;;;11.02;7.25;;;22.50;74.40;;;;;;5052782;28;20029;-75
2023/08/22 02:39:38;;;;;;;9.63;7.43;;;22.50;74.70;;;;;;5052726;28;20032;-75
2023/08/22 02:42:03;;;;;;;8.73;7.07;;;22.50;74.90;;;;;;5052777;28;20075;-75
2023/08/22 02:44:29;;;;;;;9.10;7.05;;;22.50;74.80;;;;;;5052685;28;20096;-75
2023/08/22 02:46:54;;;;;;;8.35;7.47;;;22.50;74.40;;;;;;5052695;28;20063;-76
2023/08/22 02:49:20;;;;;;;16.33;9.68;;;22.60;74.30;;;;;;5052718;28;20102;-75
2023/08/22 02:51:45;;;;;;;9.52;7.60;;;22.60;74.20;;;;;;5052661;28;20025;-75
2023/08/22 02:54:11;;;;;;;9.73;7.40;;;22.60;73.80;;;;;;5055959;28;20021;-75
2023/08/22 02:56:37;;;;;;;11.80;7.50;;;22.70;74.00;;;;;;5056843;28;20031;-75
2023/08/22 02:59:03;;;;;;;8.88;7.53;;;22.70;73.90;;;;;;5056758;28;20143;-76
2023/08/22 03:01:28;;;;;;;9.27;7.78;;;22.60;74.00;;;;;;5056804;28;20021;-75
2023/08/22 03:03:54;;;;;;;10.30;7.18;;;22.60;74.10;;;;;;5056727;28;20404;-76
2023/08/22 03:06:22;;;;;;;10.93;7.53;;;22.60;74.10;;;;;;5056681;28;20533;-76
2023/08/22 03:08:48;;;;;;;7.82;7.13;;;22.60;74.00;;;;;;5038608;28;20394;-75
2023/08/22 03:11:13;;;;;;;11.27;7.72;;;22.50;74.30;;;;;;5056488;28;20021;-76
2023/08/22 03:13:39;;;;;;;8.18;7.30;;;22.40;74.70;;;;;;5056263;28;20118;-76
2023/08/22 03:16:04;;;;;;;10.20;7.72;;;22.40;74.60;;;;;;5056378;28;20094;-76
2023/08/22 03:18:30;;;;;;;8.52;7.30;;;22.50;74.60;;;;;;5056329;28;20029;-76
2023/08/22 03:20:56;;;;;;;8.20;7.18;;;22.50;74.40;;;;;;5056299;28;20024;-75
2023/08/22 03:23:22;;;;;;;13.02;7.70;;;22.50;74.30;;;;;;5056345;28;20053;-75
2023/08/22 03:25:59;;;;;;;7.80;6.78;;;22.60;74.20;;;;;;5056112;28;20032;-75
2023/08/22 03:28:25;;;;;;;8.50;7.43;;;22.70;73.90;;;;;;5056154;28;20040;-75
2023/08/22 03:30:55;;;;;;;12.85;7.28;;;22.70;73.50;;;;;;5056105;28;20028;-76
2023/08/22 03:33:21;;;;;;;10.75;7.68;;;22.70;73.40;;;;;;5055906;28;20021;-76
2023/08/22 03:35:46;;;;;;;9.23;7.05;;;22.70;73.50;;;;;;5055986;28;20104;-76
2023/08/22 03:38:12;;;;;;;8.88;7.60;;;22.70;73.50;;;;;;5055891;28;20032;-75
2023/08/22 03:40:37;;;;;;;8.18;7.38;;;22.70;73.60;;;;;;5055900;28;20040;-75
2023/08/22 03:43:03;;;;;;;10.02;7.05;;;22.70;73.40;;;;;;5055805;28;20070;-75
2023/08/22 03:45:28;;;;;;;10.18;7.07;;;22.70;73.30;;;;;;5055925;28;20478;-76
2023/08/22 03:47:54;;;;;;;8.10;7.30;;;22.70;73.30;;;;;;5055406;28;20431;-75
2023/08/22 03:50:19;;;;;;;10.02;7.00;;;22.70;73.30;;;;;;5055540;28;20409;-75
2023/08/22 03:52:45;;;;;;;9.23;7.20;;;22.70;73.10;;;;;;5055560;28;20059;-75
2023/08/22 03:55:10;;;;;;;12.18;6.93;;;22.70;73.30;;;;;;5055622;28;20032;-75
2023/08/22 03:57:36;;;;;;;10.77;7.22;;;22.70;73.20;;;;;;5055543;28;20036;-75
2023/08/22 04:00:03;;;;;;;9.88;7.45;;;22.70;73.10;;;;;;5037755;28;20028;-75
2023/08/22 04:02:29;;;;;;;8.57;6.85;;;22.70;72.90;;;;;;5055428;28;20079;-74
2023/08/22 04:04:56;;;;;;;8.93;8.02;;;22.70;73.30;;;;;;5055054;28;20078;-74
2023/08/22 04:07:21;;;;;;;10.70;7.28;;;22.70;73.20;;;;;;5055337;28;20036;-74
2023/08/22 04:09:47;;;;;;;8.88;7.57;;;22.60;73.20;;;;;;5055361;28;20020;-74
2023/08/22 04:12:12;;;;;;;8.70;7.88;;;22.60;73.50;;;;;;5055193;28;20031;-75
2023/08/22 04:14:38;;;;;;;9.82;7.50;;;22.50;73.70;;;;;;5055108;28;20043;-74
2023/08/22 04:17:03;;;;;;;8.07;7.32;;;22.50;74.00;;;;;;5055326;28;20025;-75
2023/08/22 04:19:29;;;;;;;8.68;7.50;;;22.50;74.00;;;;;;5055148;28;20071;-76
2023/08/22 04:21:54;;;;;;;8.57;7.57;;;22.50;74.00;;;;;;5054968;28;20489;-76
2023/08/22 04:24:20;;;;;;;8.60;7.60;;;22.50;73.90;;;;;;5054998;28;20056;-76
2023/08/22 04:26:46;;;;;;;13.30;7.90;;;22.40;74.20;;;;;;5054914;28;20596;-75
2023/08/22 04:29:11;;;;;;;13.80;8.48;;;22.40;74.10;;;;;;5037064;28;20021;-75
2023/08/22 04:31:37;;;;;;;10.18;7.47;;;22.40;74.30;;;;;;5055115;28;20100;-75
2023/08/22 04:34:03;;;;;;;9.40;7.40;;;22.30;74.70;;;;;;5054655;28;20049;-75
2023/08/22 04:36:28;;;;;;;10.18;7.28;;;22.20;74.80;;;;;;5054975;28;20017;-75
2023/08/22 04:38:54;;;;;;;8.05;7.25;;;22.20;75.10;;;;;;5054950;28;20521;-76
2023/08/22 04:41:19;;;;;;;11.48;8.30;;;22.20;75.20;;;;;;5054647;28;20079;-75
2023/08/22 04:43:45;;;;;;;9.93;7.68;;;22.20;75.00;;;;;;5054928;28;20070;-75
2023/08/22 04:46:12;;;;;;;8.65;7.65;;;22.30;74.60;;;;;;5043081;28;20021;-75
2023/08/22 04:48:37;;;;;;;10.95;7.57;;;22.30;74.70;;;;;;5055004;28;20560;-75
2023/08/22 04:51:03;;;;;;;9.60;8.25;;;22.30;74.80;;;;;;5054892;28;20106;-75
2023/08/22 04:53:28;;;;;;;9.10;7.50;;;22.30;74.90;;;;;;5058098;28;20016;-74
2023/08/22 04:55:54;;;;;;;12.18;7.50;;;22.20;75.00;;;;;;5054899;28;20029;-74
2023/08/22 04:58:19;;;;;;;9.98;8.27;;;22.10;75.20;;;;;;5054466;28;20091;-74
2023/08/22 05:00:45;;;;;;;14.80;7.38;;;22.00;75.60;;;;;;5054256;28;20028;-75
2023/08/22 05:03:11;;;;;;;10.98;7.40;;;22.00;75.90;;;;;;5054267;28;20603;-75
2023/08/22 05:05:36;;;;;;;11.25;8.30;;;22.10;76.10;;;;;;5054330;28;20021;-75
2023/08/22 05:08:02;;;;;;;12.40;7.68;;;22.20;75.60;;;;;;5054266;28;20041;-75
2023/08/22 05:10:27;;;;;;;9.40;7.15;;;22.30;75.30;;;;;;5054246;28;20416;-75
2023/08/22 05:12:53;;;;;;;8.60;7.15;;;22.30;75.00;;;;;;5036154;28;20041;-75
2023/08/22 05:15:18;;;;;;;8.77;7.90;;;22.40;75.00;;;;;;5036052;28;20107;-75
2023/08/22 05:17:44;;;;;;;9.45;8.32;;;22.50;75.00;;;;;;5054135;28;20048;-74
2023/08/22 05:20:13;;;;;;;12.60;7.85;;;22.50;74.80;;;;;;5054084;28;20055;-74
2023/08/22 05:22:38;;;;;;;8.70;7.55;;;22.50;74.40;;;;;;5053864;28;20075;-74
2023/08/22 05:25:05;;;;;;;10.98;7.78;;;22.40;74.30;;;;;;5053917;28;20025;-78
2023/08/22 05:27:31;;;;;;;9.98;8.27;;;22.50;74.50;;;;;;5053874;28;20029;-75
2023/08/22 05:29:56;;;;;;;8.88;6.78;;;22.40;74.40;;;;;;5053366;28;20485;-75
2023/08/22 05:32:22;;;;;;;10.25;7.30;;;22.50;74.20;;;;;;5053864;28;20070;-75
2023/08/22 05:34:47;;;;;;;10.50;7.05;;;22.70;74.10;;;;;;5053396;28;20025;-75
2023/08/22 05:37:13;;;;;;;10.60;7.63;;;22.80;73.30;;;;;;5035755;28;20115;-75
2023/08/22 05:39:39;;;;;;;8.18;6.47;;;22.90;72.50;;;;;;5053644;28;20465;-75
2023/08/22 05:42:04;;;;;;;8.77;7.13;;;23.00;72.30;;;;;;5053452;28;20036;-74
2023/08/22 05:44:32;;;;;;;13.85;7.82;;;23.00;72.20;;;;;;5053680;28;20500;-74
2023/08/22 05:46:57;;;;;;;10.75;6.95;;;23.20;71.40;;;;;;5053516;28;20025;-74
2023/08/22 05:49:23;;;;;;;15.05;7.97;;;23.20;71.50;;;;;;5053616;28;20487;-74
2023/08/22 05:51:49;;;;;;;12.85;7.28;;;23.30;71.40;;;;;;5053517;28;20021;-73
2023/08/22 05:54:15;;;;;;;9.73;7.28;;;23.30;71.10;;;;;;5053389;28;20067;-73
2023/08/22 05:56:40;;;;;;;8.48;7.15;;;23.40;71.00;;;;;;5053290;28;20466;-74
2023/08/22 05:59:06;;;;;;;10.13;7.32;;;23.50;70.60;;;;;;5053328;28;20051;-72
2023/08/22 06:01:31;;;;;;;11.82;7.38;;;23.50;70.40;;;;;;5053082;28;20044;-74
2023/08/22 06:03:57;;;;;;;8.13;7.18;;;23.50;71.10;;;;;;5053441;28;20016;-74
2023/08/22 06:06:23;;;;;;;9.43;7.57;;;23.60;70.30;;;;;;5035412;28;20079;-73
2023/08/22 06:08:48;;;;;;;7.90;7.10;;;23.60;70.10;;;;;;5053217;28;20037;-74
2023/08/22 06:11:14;;;;;;;8.30;7.10;;;23.60;70.30;;;;;;5035361;28;20512;-74
2023/08/22 06:13:39;;;;;;;14.02;6.78;;;23.80;69.70;;;;;;5052944;28;20041;-74
2023/08/22 06:16:05;;;;;;;15.32;7.70;;;24.00;69.40;;;;;;5053207;28;20100;-74
2023/08/22 06:18:30;;;;;;;9.85;7.35;;;24.10;69.00;;;;;;5056109;28;20386;-74
2023/08/22 06:21:00;;;;;;;12.93;7.00;;;24.20;68.20;;;;;;5053152;28;20501;-75
2023/08/22 06:23:26;;;;;;;7.40;6.60;;;24.30;68.20;;;;;;5053817;28;20033;-74
2023/08/22 06:25:52;;;;;;;8.25;6.97;;;24.40;68.00;;;;;;5052618;28;20055;-78
2023/08/22 06:28:18;;;;;;;10.05;7.22;;;24.50;67.80;;;;;;5051887;28;20434;-75
2023/08/22 06:30:43;;;;;;;7.60;6.60;;;24.70;67.20;;;;;;5052892;28;20052;-75
2023/08/22 06:33:09;;;;;;;9.93;7.43;;;24.80;66.60;;;;;;5037065;28;20119;-74
2023/08/22 06:35:35;;;;;;;11.88;7.22;;;24.90;66.50;;;;;;5032743;28;20545;-75
2023/08/22 06:38:00;;;;;;;8.48;7.07;;;25.00;66.00;;;;;;5032849;28;20037;-75
2023/08/22 06:40:26;;;;;;;9.50;6.38;;;25.10;65.60;;;;;;5032922;28;20068;-75
2023/08/22 06:42:51;;;;;;;7.50;6.68;;;25.30;65.10;;;;;;5032853;28;20022;-74
2023/08/22 06:45:17;;;;;;;8.43;6.53;;;25.30;64.40;;;;;;5032971;28;20391;-75
2023/08/22 06:47:43;;;;;;;10.38;7.32;;;25.40;64.00;;;;;;5032738;28;20111;-74
2023/08/22 06:50:09;;;;;;;10.93;7.20;;;25.60;63.80;;;;;;5032507;28;20025;-73
2023/08/22 06:52:35;;;;;;;8.45;7.05;;;25.60;63.50;;;;;;5032574;28;20089;-74
2023/08/22 06:55:01;;;;;;;11.30;7.53;;;25.70;63.60;;;;;;5032461;28;20505;-74
2023/08/22 06:57:26;;;;;;;10.18;6.70;;;25.70;63.20;;;;;;5031969;28;20049;-74
2023/08/22 06:59:52;;;;;;;9.80;6.75;;;25.80;62.80;;;;;;5032409;28;20152;-73
2023/08/22 07:02:18;;;;;;;15.60;8.10;;;25.90;62.40;;;;;;5032352;28;20025;-75
2023/08/22 07:04:43;;;;;;;12.57;8.13;;;26.00;62.80;;;;;;5032440;28;20308;-74
2023/08/22 07:07:09;;;;;;;9.93;7.53;;;26.00;62.70;;;;;;5032367;28;20504;-75
2023/08/22 07:09:34;;;;;;;11.27;7.07;;;26.10;62.20;;;;;;5033269;28;20398;-76
2023/08/22 07:12:00;;;;;;;16.65;7.40;;;26.10;63.00;;;;;;5017006;28;20108;-76
2023/08/22 07:14:26;;;;;;;12.80;7.35;;;26.20;62.40;;;;;;5033224;28;20100;-76
2023/08/22 07:16:51;;;;;;;15.52;7.82;;;26.30;62.00;;;;;;5033411;28;20028;-76
2023/08/22 07:19:17;;;;;;;9.50;7.28;;;26.40;61.50;;;;;;5033441;28;20022;-76
2023/08/22 07:21:43;;;;;;;13.25;7.50;;;26.50;61.20;;;;;;5032727;28;20029;-76
2023/08/22 07:24:08;;;;;;;9.82;7.03;;;26.40;60.00;;;;;;5032177;28;20033;-74
2023/08/22 07:26:34;;;;;;;7.57;6.70;;;26.40;60.30;;;;;;5032235;28;20017;-74
2023/08/22 07:29:00;;;;;;;13.13;7.45;;;26.60;60.20;;;;;;5032117;28;20044;-73
2023/08/22 07:31:25;;;;;;;13.98;7.28;;;26.70;59.40;;;;;;5014801;28;20025;-74
2023/08/22 07:33:51;;;;;;;12.20;7.43;;;26.70;59.50;;;;;;5014802;28;20025;-74
2023/08/22 07:36:20;;;;;;;9.27;6.70;;;26.80;60.40;;;;;;5014538;28;20367;-74
2023/08/22 07:38:46;;;;;;;12.52;7.93;;;26.70;59.50;;;;;;5015431;28;20021;-76
2023/08/22 07:41:11;;;;;;;10.93;6.93;;;26.60;59.90;;;;;;5023714;28;20086;-76
2023/08/22 07:43:37;;;;;;;13.68;7.15;;;26.70;59.00;;;;;;5018270;28;20104;-73
2023/08/22 07:46:02;;;;;;;9.25;7.00;;;26.70;59.10;;;;;;5018114;28;20033;-76
2023/08/22 07:48:28;;;;;;;10.30;8.35;;;26.60;59.60;;;;;;5017887;28;20488;-76
2023/08/22 07:50:57;;;;;;;8.70;7.22;;;26.60;60.10;;;;;;5001834;28;20017;-76
2023/08/22 07:53:22;;;;;;;12.73;8.00;;;26.70;59.60;;;;;;5017697;28;20104;-76
2023/08/22 07:55:48;;;;;;;7.50;6.70;;;26.80;59.50;;;;;;5018096;28;20489;-76
2023/08/22 07:58:15;;;;;;;9.70;7.63;;;26.90;59.10;;;;;;5018107;28;20022;-76
2023/08/22 08:00:41;;;;;;;12.68;7.85;;;27.00;59.40;;;;;;5017901;28;20382;-73
2023/08/22 08:03:06;;;;;;;9.35;7.53;;;27.10;59.20;;;;;;5017956;28;20026;-74
2023/08/22 08:05:33;;;;;;;11.18;7.43;;;27.10;59.00;;;;;;5018129;28;20052;-74
2023/08/22 08:07:59;;;;;;;9.52;6.93;;;27.20;58.90;;;;;;5035383;28;20033;-74
2023/08/22 08:10:25;;;;;;;12.68;7.70;;;27.30;58.40;;;;;;5017745;28;20025;-74
2023/08/22 08:12:51;;;;;;;10.07;6.85;;;27.30;57.70;;;;;;5017599;28;20078;-74
2023/08/22 08:15:16;;;;;;;11.18;6.68;;;27.50;57.00;;;;;;5017740;28;20021;-74
2023/08/22 08:17:42;;;;;;;9.90;7.30;;;27.50;57.00;;;;;;5034950;28;20025;-73
2023/08/22 08:20:10;;;;;;;9.75;6.63;;;27.40;56.60;;;;;;5022544;28;20068;-74
2023/08/22 08:22:36;;;;;;;8.90;6.78;;;27.40;57.20;;;;;;5017609;28;20045;-75
2023/08/22 08:25:03;;;;;;;9.00;6.25;;;27.60;56.70;;;;;;5017437;28;20116;-73
2023/08/22 08:27:28;;;;;;;8.77;6.80;;;27.70;56.80;;;;;;5001330;28;20034;-73
2023/08/22 08:29:54;;;;;;;8.82;6.47;;;27.80;56.70;;;;;;5017244;28;20080;-74
2023/08/22 08:32:21;;;;;;;8.25;6.28;;;27.90;55.20;;;;;;5017453;28;20466;-74
2023/08/22 08:34:47;;;;;;;8.60;6.15;;;28.00;55.70;;;;;;5017335;28;20026;-74
2023/08/22 08:37:12;;;;;;;8.02;6.47;;;28.10;56.00;;;;;;5016876;28;20390;-74
2023/08/22 08:39:38;;;;;;;7.50;5.85;;;28.20;55.60;;;;;;5016723;28;20103;-73
2023/08/22 08:42:14;;;;;;;13.88;7.50;;;28.40;54.40;;;;;;5016989;28;20048;-73
2023/08/22 08:44:40;;;;;;;7.10;6.30;;;28.30;55.00;;;;;;5016452;28;20021;-73
2023/08/22 08:47:10;;;;;;;7.70;6.40;;;28.30;55.00;;;;;;5017176;28;20045;-73
2023/08/22 08:49:37;;;;;;;8.55;6.15;;;28.40;54.30;;;;;;5017052;28;20489;-74
2023/08/22 08:52:05;;;;;;;9.40;6.57;;;28.50;53.80;;;;;;5016149;28;20034;-74
2023/08/22 08:54:34;;;;;;;10.07;6.35;;;28.60;53.70;;;;;;5016988;28;20405;-74
2023/08/22 08:57:00;;;;;;;9.82;6.50;;;28.80;53.40;;;;;;5017074;28;20026;-74
2023/08/22 08:59:27;;;;;;;8.98;5.70;;;28.80;54.20;;;;;;5034584;28;20083;-74
2023/08/22 09:01:53;;;;;;;10.00;6.22;;;29.00;53.80;;;;;;5016958;28;20390;-74
2023/08/22 09:04:20;;;;;;;9.70;6.32;;;29.10;52.50;;;;;;5017197;28;20021;-75
2023/08/22 09:06:46;;;;;;;13.38;6.82;;;29.10;52.10;;;;;;5025171;28;20044;-74
2023/08/22 09:09:14;;;;;;;11.85;7.18;;;29.20;52.10;;;;;;5026849;28;20389;-74
2023/08/22 09:11:47;;;;;;;8.60;5.95;;;29.10;52.20;;;;;;5024118;28;20021;-74
2023/08/22 09:14:22;;;;;;;7.68;5.78;;;29.00;52.80;;;;;;5022623;28;20128;-74
2023/08/22 09:16:51;;;;;;;6.90;6.03;;;29.20;52.30;;;;;;5022769;28;20013;-74
2023/08/22 09:19:16;;;;;;;9.48;6.22;;;29.30;53.00;;;;;;5021668;28;20030;-74
2023/08/22 09:21:59;;;;;;;9.43;6.07;;;29.40;51.30;;;;;;5020587;28;20026;-74
2023/08/22 09:24:27;;;;;;;13.35;5.70;;;29.50;49.60;;;;;;5012753;28;20541;-74
2023/08/22 09:26:53;;;;;;;7.30;4.32;;;29.40;48.90;;;;;;5012971;28;20033;-74
2023/08/22 09:29:29;;;;;;;6.80;4.25;;;29.50;46.90;;;;;;5012755;28;20116;-74
2023/08/22 09:32:00;;;;;;;7.47;4.40;;;29.70;45.30;;;;;;5012064;28;20398;-74
2023/08/22 09:34:26;;;;;;;4.47;4.07;;;29.80;44.90;;;;;;5012337;28;20462;-75
2023/08/22 09:36:53;;;;;;;7.15;4.68;;;29.90;44.60;;;;;;5028516;28;20040;-75
2023/08/22 09:39:21;;;;;;;7.93;4.35;;;30.00;44.40;;;;;;5012144;28;20029;-74
2023/08/22 09:41:53;;;;;;;6.57;4.45;;;30.00;44.80;;;;;;5012654;28;20048;-76
2023/08/22 09:44:23;;;;;;;7.68;4.43;;;29.80;44.10;;;;;;5012350;28;20029;-77
2023/08/22 09:46:50;;;;;;;6.35;4.57;;;29.90;44.20;;;;;;5012098;28;20030;-75
2023/08/22 09:49:16;;;;;;;9.43;4.70;;;29.90;44.50;;;;;;5012344;28;20172;-75
2023/08/22 09:51:47;;;;;;;4.45;3.80;;;29.80;43.90;;;;;;5012195;28;20105;-76
2023/08/22 09:54:14;;;;;;;6.00;4.38;;;29.90;43.70;;;;;;5012735;28;20025;-75
2023/08/22 09:56:40;;;;;;;6.60;4.38;;;30.10;44.60;;;;;;5011695;28;20022;-75
2023/08/22 09:59:07;;;;;;;8.13;4.07;;;30.40;45.00;;;;;;5011870;28;20034;-76
2023/08/22 10:01:38;;;;;;;7.95;4.70;;;30.50;43.50;;;;;;5010757;28;20121;-74
2023/08/22 10:04:05;;;;;;;5.75;4.50;;;30.60;43.60;;;;;;5011179;28;20053;-74
2023/08/22 10:06:35;;;;;;;8.98;4.75;;;30.70;43.60;;;;;;5011797;28;20018;-75
2023/08/22 10:09:19;;;;;;;7.78;4.80;;;30.80;42.30;;;;;;5011478;28;20034;-75
2023/08/22 10:11:57;;;;;;;5.35;4.60;;;30.90;41.90;;;;;;5012156;28;20105;-75
2023/08/22 10:14:33;;;;;;;7.03;4.45;;;30.90;41.80;;;;;;5028287;28;20056;-75
2023/08/22 10:16:59;;;;;;;6.55;4.45;;;31.20;43.30;;;;;;5012057;28;20017;-74
2023/08/22 10:19:26;;;;;;;4.70;3.42;;;31.20;42.90;;;;;;5011756;28;20116;-76
2023/08/22 10:21:55;;;;;;;4.82;3.30;;;31.30;41.40;;;;;;5011780;28;20502;-76
2023/08/22 10:24:31;;;;;;;8.18;3.97;;;31.40;40.50;;;;;;5011405;28;20057;-76
2023/08/22 10:27:05;;;;;;;4.93;3.45;;;31.60;39.90;;;;;;5011580;28;20022;-76
2023/08/22 10:29:40;;;;;;;9.05;3.92;;;31.80;40.00;;;;;;5012038;28;20482;-76
2023/08/22 10:32:05;;;;;;;6.60;3.13;;;32.00;40.20;;;;;;5015533;28;20033;-77
2023/08/22 10:34:34;;;;;;;5.63;3.70;;;32.10;39.70;;;;;;5011886;28;20029;-75
2023/08/22 10:37:01;;;;;;;7.57;3.88;;;32.30;39.00;;;;;;5012018;28;20084;-73
2023/08/22 10:39:47;;;;;;;4.07;3.50;;;32.20;38.40;;;;;;5011935;28;20459;-73
2023/08/22 10:42:13;;;;;;;3.55;3.25;;;32.30;38.90;;;;;;5011783;28;20033;-74
2023/08/22 10:44:39;;;;;;;5.63;3.72;;;32.30;39.30;;;;;;5011691;28;20018;-74
2023/08/22 10:47:24;;;;;;;4.38;3.17;;;32.50;39.30;;;;;;5011317;28;20030;-74
2023/08/22 10:49:55;;;;;;;4.00;3.10;;;32.50;37.70;;;;;;5011683;28;20022;-75
2023/08/22 10:52:37;;;;;;;6.10;3.45;;;32.60;37.50;;;;;;5012595;28;20100;-74
2023/08/22 10:55:03;;;;;;;8.20;3.40;;;32.90;37.30;;;;;;5011614;28;20025;-76
2023/08/22 10:57:31;;;;;;;3.70;3.28;;;33.10;36.50;;;;;;5011581;28;20382;-74
2023/08/22 11:00:00;;;;;;;7.57;3.95;;;33.20;36.40;;;;;;5011486;28;20053;-75
2023/08/22 11:02:32;;;;;;;5.50;3.22;;;33.20;36.70;;;;;;5011533;28;20544;-75
2023/08/22 11:05:10;;;;;;;6.15;3.30;;;33.30;36.70;;;;;;5010722;28;20022;-72
2023/08/22 11:07:36;;;;;;;3.90;3.10;;;33.50;35.90;;;;;;5012585;28;20030;-73
2023/08/22 11:10:03;;;;;;;5.07;3.47;;;33.80;34.90;;;;;;5011273;28;20018;-72
2023/08/22 11:12:29;;;;;;;5.35;2.85;;;33.90;34.00;;;;;;5013781;28;20130;-72
2023/08/22 11:14:57;;;;;;;3.75;3.00;;;34.00;33.60;;;;;;5035494;28;20477;-75
2023/08/22 11:17:23;;;;;;;3.00;2.70;;;34.00;33.70;;;;;;5018642;28;20075;-72
2023/08/22 11:19:53;;;;;;;4.63;3.08;;;33.90;33.30;;;;;;5018246;28;20025;-74
2023/08/22 11:22:19;;;;;;;5.85;2.78;;;33.90;33.90;;;;;;5018559;28;20500;-75
2023/08/22 11:24:46;;;;;;;4.85;3.15;;;33.90;33.90;;;;;;5018553;28;20505;-75
2023/08/22 11:27:15;;;;;;;5.25;3.80;;;34.00;33.60;;;;;;5018430;28;20029;-74
2023/08/22 11:29:49;;;;;;;6.05;2.65;;;34.00;33.90;;;;;;5018223;28;20053;-75
2023/08/22 11:32:35;;;;;;;4.83;3.27;;;34.00;32.80;;;;;;5018455;28;20045;-75
2023/08/22 11:35:04;;;;;;;5.15;2.70;;;34.20;34.20;;;;;;5018014;28;20021;-76
2023/08/22 11:37:37;;;;;;;4.20;2.72;;;34.30;33.00;;;;;;5018083;28;20354;-75
2023/08/22 11:40:05;;;;;;;3.45;2.58;;;34.30;32.30;;;;;;5017910;28;20026;-75
2023/08/22 11:42:33;;;;;;;4.70;3.20;;;34.50;32.30;;;;;;5023482;28;20057;-75
2023/08/22 11:45:04;;;;;;;4.55;2.90;;;34.70;31.60;;;;;;5018091;28;20080;-75
2023/08/22 11:47:36;;;;;;;4.10;3.15;;;34.30;32.00;;;;;;5018085;28;20040;-76
2023/08/22 11:50:03;;;;;;;6.75;3.33;;;34.40;32.80;;;;;;5017950;28;20022;-76
2023/08/22 11:52:29;;;;;;;7.47;3.25;;;34.00;32.90;;;;;;5018141;28;20536;-75
2023/08/22 11:55:08;;;;;;;5.40;2.78;;;33.70;33.40;;;;;;5017517;28;20021;-77
2023/08/22 11:57:38;;;;;;;7.25;4.55;;;33.90;33.40;;;;;;5017565;28;20030;-74
2023/08/22 12:00:07;;;;;;;6.50;3.70;;;34.00;33.30;;;;;;5037419;28;20084;-75
2023/08/22 12:02:33;;;;;;;5.10;3.00;;;34.00;33.60;;;;;;5017892;28;20025;-80
2023/08/22 12:04:59;;;;;;;4.15;2.97;;;34.20;33.80;;;;;;5017769;28;20125;-80
2023/08/22 12:07:27;;;;;;;5.32;2.90;;;34.40;33.00;;;;;;5017476;28;20029;-80
2023/08/22 12:09:59;;;;;;;5.45;2.95;;;34.50;32.50;;;;;;5017411;28;20350;-76
2023/08/22 12:12:25;;;;;;;5.40;3.28;;;34.10;33.50;;;;;;5014948;28;20622;-75
2023/08/22 12:14:51;;;;;;;4.18;3.13;;;34.10;33.50;;;;;;5017192;28;20040;-76
2023/08/22 12:17:18;;;;;;;4.78;3.28;;;34.20;32.90;;;;;;5035243;28;20462;-75
2023/08/22 12:19:45;;;;;;;4.80;2.90;;;34.40;32.60;;;;;;5017730;28;20259;-76
2023/08/22 12:22:11;;;;;;;3.65;2.90;;;34.40;32.40;;;;;;5017776;28;20112;-75
2023/08/22 12:24:36;;;;;;;6.68;3.15;;;34.30;32.90;;;;;;5017508;28;20120;-75
2023/08/22 12:27:02;;;;;;;5.80;3.10;;;34.50;33.70;;;;;;5017518;28;20041;-75
2023/08/22 12:29:28;;;;;;;4.35;3.03;;;34.50;32.20;;;;;;5017341;28;20044;-75
2023/08/22 12:31:55;;;;;;;3.70;3.08;;;34.80;32.30;;;;;;5017251;28;20053;-76
2023/08/22 12:34:20;;;;;;;5.57;3.10;;;35.00;32.70;;;;;;5016778;28;20045;-75
2023/08/22 12:36:46;;;;;;;3.85;3.13;;;34.90;31.00;;;;;;5017428;28;20060;-73
2023/08/22 12:39:12;;;;;;;4.72;2.78;;;35.00;32.10;;;;;;5017244;28;20026;-74
2023/08/22 12:41:40;;;;;;;5.65;3.05;;;35.00;31.50;;;;;;5017091;28;20022;-76